Terminal Aerodrome Forecast
Issued by NWS

Home | Current Version | Previous Version | Text Only | Print | Product List | Glossary On
Versions: 1 2 3 4 5 6 7 8 9 10 11 12 13 14 15
941
FTUS43 KIND 291425 AAA
TAFBMG
TAF AMD
KBMG 291425Z 2914/3012 22015G23KT P6SM SCT040 BKN250
     FM292300 20010KT P6SM SCT150
     FM300100 19006KT P6SM SCT200
     FM300900 20007KT P6SM BKN015=

USA.gov is the U.S. government's official web portal to all federal, state and local government web resources and services.